Latest Coastal Weather Observations for Dennes Point

IDT60701

Issued at 2:52 pm EST Saturday 1 October 2016 (issued every 10 minutes, with the page automatically refreshed every 10 minutes)

About coastal observations | Map of coastal stations | Coastal observations for TAS | Marine services | Other Formats
Station Details ID: 094255 Name: DENNES POINT Lat: -43.06 Lon: 147.36 Height: 5.67 m
Data from the previous 72 hours. | See also: Recent months at Dennes Point
Date/Time
EST
Temp
°C
Wind Pressure Rain since
9am
mm
Weather Cloud Vis
km
Sea
Height
m
Swell
Dir  Spd
kts
Gust
kts
hPa Trend Height
m
Period
s
Dir
01/02:30pm 14.1 N 10 13 991.0 - 1.8 - - - - - - -
01/02:00pm 14.4 ENE 6 7 991.1 - 1.8 - - - - - - -
01/01:30pm 12.6 NNE 7 9 991.2 - 1.8 - - - - - - -
01/01:00pm 12.9 NNE 11 12 991.5 - 1.8 - - - - - - -
01/12:30pm 12.0 NNE 10 12 991.8 - 1.8 - - - - - - -
01/12:00pm 11.3 NNE 10 12 992.2 - 1.8 - - - - - - -
01/11:30am 10.8 NNE 9 10 992.3 - 1.8 - - - - - - -
01/11:00am 10.5 NNE 9 11 992.6 - 1.8 - - - - - - -
01/10:30am 10.3 NE 10 13 992.9 - 1.8 - - - - - - -
01/10:00am 10.0 NE 10 13 993.2 - 1.8 - - - - - - -
01/09:30am 9.9 NE 9 10 993.5 - 0.8 - - - - - - -
01/09:00am 9.7 NE 9 11 993.7 - 2.6 Recent precip. - - - - - -
01/08:30am 9.8 NE 11 13 993.6 - 2.2 - - - - - - -
01/08:00am 10.1 NNE 11 15 993.6 - 1.6 - - - - - - -
01/07:30am 10.1 N 12 15 993.6 - 1.4 - - - - - - -
01/07:00am 10.6 NNE 13 16 993.4 - 1.4 - - - - - - -
01/06:30am 10.6 NNE 11 14 993.2 - 1.4 - - - - - - -
01/06:00am 10.4 NE 12 15 993.1 - 1.4 - - - - - - -
01/05:30am 9.9 NE 12 14 992.7 - 1.4 - - - - - - -
01/05:00am 10.1 NE 11 14 992.5 - 1.4 - - - - - - -
01/04:30am 10.4 NNE 13 15 992.1 - 1.4 - - - - - - -
01/04:00am 10.4 N 13 15 992.0 - 1.4 - - - - - - -
01/03:30am 10.0 N 9 11 992.1 - 1.4 - - - - - - -
01/03:00am 10.2 N 11 14 992.3 - 1.4 - - - - - - -
01/02:30am 10.1 NNE 15 18 992.2 - 1.4 - - - - - - -
01/02:00am 10.1 NE 13 15 992.4 - 1.4 - - - - - - -
01/01:30am 10.2 NE 13 15 992.5 - 1.4 - - - - - - -
01/01:00am 10.4 NNE 14 20 992.7 - 1.4 - - - - - - -
01/12:30am 10.5 NNE 16 20 992.9 - 1.4 - - - - - - -
01/12:00am 10.7 NNE 17 21 992.7 - 1.4 - - - - - - -
 
Date/Time
EST
Temp
°C
Wind Pressure Rain since
9am
mm
Weather Cloud Vis
km
Sea
Height
m
Swell
Dir  Spd
kts
Gust
kts
hPa Trend Height
m
Period
s
Dir
30/11:30pm 10.9 NNE 17 22 992.6 - 1.4 - - - - - - -
30/11:00pm 10.9 NNE 17 20 992.6 - 1.4 - - - - - - -
30/10:30pm 11.2 N 16 20 992.9 - 1.4 - - - - - - -
30/10:00pm 11.4 N 15 17 993.0 - 1.4 - - - - - - -
30/09:30pm 11.4 N 16 19 993.0 - 1.4 - - - - - - -
30/09:00pm 11.7 NNE 19 25 992.8 - 1.4 - - - - - - -
30/08:30pm 11.8 NNE 17 23 992.5 - 1.4 - - - - - - -
30/08:00pm 12.0 N 19 23 992.3 - 1.4 - - - - - - -
30/07:30pm 12.1 N 18 24 992.0 - 1.4 - - - - - - -
30/07:00pm 12.1 N 18 23 991.2 - 1.4 - - - - - - -
30/06:30pm 12.7 NNE 17 21 990.5 - 1.4 - - - - - - -
30/06:11pm 13.1 NNE 21 31 990.0 - 1.4 - - - - - - -
30/06:00pm 13.2 NNE 15 19 989.7 - 1.4 - - - - - - -
30/05:30pm 13.1 N 11 14 989.0 - 1.4 - - - - - - -
30/05:00pm 12.9 N 12 15 988.5 - 1.4 - - - - - - -
30/04:30pm 13.3 N 11 13 988.0 - 1.4 - - - - - - -
30/04:00pm 13.2 N 12 15 987.6 - 1.4 - - - - - - -
30/03:30pm 13.2 N 9 12 987.4 - 1.4 - - - - - - -
30/03:00pm 12.8 N 14 17 987.0 - 1.4 - - - - - - -
30/02:30pm 13.1 NE 12 16 986.9 - 1.4 - - - - - - -
30/02:00pm 12.3 NE 15 20 986.9 - 1.4 - - - - - - -
30/01:30pm 12.6 SE 8 14 986.9 - 1.4 - - - - - - -
30/01:00pm 13.0 ESE 10 15 987.4 - 1.4 - - - - - - -
30/12:30pm 12.3 SE 15 21 987.5 - 1.2 - - - - - - -
30/12:00pm 13.1 SE 11 19 987.9 - 0.6 - - - - - - -
30/11:30am 13.6 SE 14 22 988.2 - 0.6 - - - - - - -
30/11:00am 13.5 ESE 13 19 989.0 - 0.6 - - - - - - -
30/10:30am 13.6 E 19 27 989.3 - 0.6 - - - - - - -
30/10:00am 13.4 E 23 30 989.4 - 0.6 - - - - - - -
30/09:30am 13.0 E 26 33 989.4 - 0.6 - - - - - - -
30/09:14am 12.8 ESE 18 28 989.6 - 0.4 - - - - - - -
30/09:00am 12.7 ESE 16 23 989.8 - 10.4 Rain - - - - - -
30/08:30am 12.4 SE 20 27 989.9 - 9.4 - - - - - - -
30/08:20am 12.3 SE 15 26 990.1 - 9.2 - - - - - - -
30/08:00am 12.1 SE 8 18 990.5 - 8.0 - - - - - - -
30/07:30am 12.3 SE 8 16 991.3 - 6.2 - - - - - - -
30/07:00am 12.5 ESE 13 18 991.9 - 4.8 - - - - - - -
30/06:30am 12.7 ESE 12 20 991.7 - 3.6 - - - - - - -
30/06:00am 12.6 ESE 16 20 991.8 - 3.4 Rain - - - - - -
30/05:30am 12.7 E 19 25 991.8 - 2.6 - - - - - - -
30/05:00am 12.7 ESE 13 21 991.6 - 2.4 - - - - - - -
30/04:30am 13.0 E 21 28 991.5 - 1.8 - - - - - - -
30/04:00am 13.4 E 21 28 991.5 - 1.6 - - - - - - -
30/03:30am 13.1 E 24 30 991.8 - 1.6 - - - - - - -
30/03:00am 13.1 ENE 25 29 992.1 - 1.0 - - - - - - -
30/02:30am 13.4 E 26 32 992.0 - 1.0 - - - - - - -
30/02:00am 13.3 E 22 28 992.4 - 1.0 - - - - - - -
30/01:30am 13.0 E 24 31 992.9 - 1.0 - - - - - - -
30/01:00am 13.2 E 24 29 993.0 - 1.0 - - - - - - -
30/12:30am 13.2 ENE 24 31 993.3 - 0.8 - - - - - - -
30/12:00am 12.8 E 23 28 993.5 - 0.2 - - - - - - -
 
Date/Time
EST
Temp
°C
Wind Pressure Rain since
9am
mm
Weather Cloud Vis
km
Sea
Height
m
Swell
Dir  Spd
kts
Gust
kts
hPa Trend Height
m
Period
s
Dir
29/11:30pm 13.5 ENE 24 29 993.6 - 0.2 - - - - - - -
29/11:00pm 13.6 ENE 26 32 993.8 - 0.2 - - - - - - -
29/10:30pm 13.4 ENE 24 29 994.1 - 0.2 - - - - - - -
29/10:00pm 13.4 ENE 24 30 994.2 - 0.2 - - - - - - -
29/09:39pm 13.5 ENE 24 36 994.3 - 0.2 - - - - - - -
29/09:30pm 13.4 ENE 25 31 994.5 - 0.2 - - - - - - -
29/09:00pm 13.6 ENE 24 30 994.5 - 0.2 - - - - - - -
29/08:30pm 13.3 ENE 21 24 994.8 - 0.2 - - - - - - -
29/08:00pm 13.4 ENE 20 25 994.7 - 0.2 - - - - - - -
29/07:30pm 13.2 ENE 24 31 994.5 - 0.2 - - - - - - -
29/07:00pm 12.9 ENE 24 30 994.5 - 0.2 - - - - - - -
29/06:30pm 13.0 ENE 24 28 994.9 - 0.2 - - - - - - -
29/06:00pm 13.4 ENE 26 33 994.8 - 0.2 - - - - - - -
29/05:30pm 13.6 ENE 28 34 994.4 - 0.2 - - - - - - -
29/05:03pm 13.7 ENE 28 39 994.3 - 0.2 - - - - - - -
29/05:00pm 13.6 ENE 27 33 994.3 - 0.2 - - - - - - -
29/04:30pm 13.6 ENE 29 36 994.0 - 0.2 - - - - - - -
29/04:01pm 13.6 ENE 29 41 993.9 - 0.2 - - - - - - -
29/04:00pm 13.6 ENE 28 36 993.9 - 0.2 - - - - - - -
29/03:56pm 13.6 ENE 28 38 993.9 - 0.2 - - - - - - -
29/03:30pm 13.6 ENE 27 33 993.9 - 0.2 - - - - - - -
29/03:00pm 13.7 ENE 28 39 994.1 - 0.2 - - - - - - -
29/02:43pm 13.6 ENE 26 37 994.3 - 0.2 - - - - - - -
29/02:30pm 13.6 ENE 29 38 994.3 - 0.2 - - - - - - -
29/02:00pm 13.8 ENE 28 36 994.5 - 0.2 - - - - - - -
29/01:30pm 13.7 ENE 26 32 994.7 - 0.2 - - - - - - -
29/01:00pm 13.7 ENE 25 31 995.0 - 0.2 - - - - - - -
29/12:30pm 13.9 ENE 25 30 995.4 - 0.2 - - - - - - -
29/12:00pm 14.0 ENE 19 24 995.8 - 0.2 Recent precip. - - - - - -
29/11:30am 13.5 ENE 19 23 996.2 - 0.2 - - - - - - -
29/11:00am 13.7 ENE 23 27 996.2 - 0.0 - - - - - - -
29/10:30am 14.0 ENE 19 23 996.8 - 0.0 - - - - - - -
29/10:00am 14.2 ENE 19 23 997.1 - 0.0 - - - - - - -
29/09:30am 14.2 ENE 13 17 997.5 - 0.0 - - - - - - -
29/09:00am 14.5 NE 15 18 997.7 - - - - - - - - -
29/08:58am 14.4 NE 15 17 997.8 - - - - - - - - -
29/08:30am 12.3 NNE 3 5 998.1 - - - - - - - - -
29/08:00am 12.0 SW 2 3 998.2 - - - - - - - - -
29/07:30am 11.6 NNE 1 2 998.3 - - - - - - - - -
29/07:00am 11.3 NNW 3 5 998.6 - - - - - - - - -
29/06:30am 11.8 N 4 4 999.2 - - - - - - - - -
29/06:00am 11.6 NNE 5 6 999.2 - - - - - - - - -
29/05:30am 11.9 N 8 9 999.6 - - - - - - - - -
29/05:00am 11.8 N 8 9 999.6 - - - - - - - - -
29/04:30am 11.6 N 6 7 1000.1 - - - - - - - - -
29/04:00am 11.5 NNE 10 12 1000.7 - - - - - - - - -
29/03:30am 11.6 NNE 12 14 1000.9 - - - - - - - - -
29/03:00am 11.4 NNE 12 15 1001.4 - 0.0 - - - - - - -
29/02:30am 11.7 NNE 12 14 1001.7 - - - - - - - - -
29/02:00am 11.5 NNE 10 12 1002.5 - - - - - - - - -
29/01:30am 11.6 NE 10 12 1002.9 - - - - - - - - -
29/01:00am 12.0 NNE 10 11 1003.2 - - - - - - - - -
29/12:30am 12.3 NNE 14 16 1003.3 - - - - - - - - -
29/12:00am 12.3 NNE 10 11 1003.5 - - - - - - - - -
 
Date/Time
EST
Temp
°C
Wind Pressure Rain since
9am
mm
Weather Cloud Vis
km
Sea
Height
m
Swell
Dir  Spd
kts
Gust
kts
hPa Trend Height
m
Period
s
Dir
28/11:30pm 12.4 NE 8 11 1003.6 - - - - - - - - -
28/11:00pm 12.2 NNE 5 6 1004.1 - - - - - - - - -
28/10:30pm 12.3 NE 5 6 1004.5 - - - - - - - - -
28/10:00pm 12.5 NNE 5 7 1004.7 - - - - - - - - -
28/09:30pm 12.6 NE 8 11 1005.0 - - - - - - - - -
28/09:00pm 12.6 NE 13 16 1005.5 - 0.0 - - - - - - -
28/08:30pm 12.6 NE 12 15 1005.8 - - - - - - - - -
28/08:00pm 12.7 NE 10 14 1005.9 - - - - - - - - -
28/07:30pm 12.6 NE 12 14 1006.1 - - - - - - - - -
28/07:00pm 12.5 NE 16 21 1005.7 - - - - - - - - -
28/06:30pm 12.6 NE 17 22 1005.7 - - - - - - - - -
28/06:00pm 12.5 ENE 16 20 1005.8 - - - - - - - - -
28/05:30pm 12.7 ENE 19 22 1005.4 - - - - - - - - -
28/05:00pm 13.1 ENE 16 19 1005.3 - - - - - - - - -
28/04:30pm 13.2 ENE 15 19 1005.2 - - - - - - - - -
28/04:00pm 13.8 ENE 14 18 1005.7 - - - - - - - - -
28/03:30pm 14.0 ESE 9 12 1005.9 - - - - - - - - -
28/03:00pm 13.9 ESE 9 12 1006.3 - - - - - - - - -

Other Formats:

Comma delimited format used in spreadsheet applications
http://www.bom.gov.au/fwo/IDT60701/IDT60701.94988.axf

JavaScript Object Notation format (JSON) in row-major order
http://www.bom.gov.au/fwo/IDT60701/IDT60701.94988.json